sensor_id;sensor_type;location;lat;lon;timestamp;P1;durP1;ratioP1;P2;durP2;ratioP2
61385;SDS011;47256;18.904;-99.054;2024-02-23T00:01:05;9.93;;;5.47;;
61385;SDS011;47256;18.904;-99.054;2024-02-23T00:03:37;11.68;;;5.57;;
61385;SDS011;47256;18.904;-99.054;2024-02-23T00:06:06;9.18;;;5.35;;
61385;SDS011;47256;18.904;-99.054;2024-02-23T00:08:35;13.27;;;5.63;;
61385;SDS011;47256;18.904;-99.054;2024-02-23T00:11:07;15.98;;;5.63;;
61385;SDS011;47256;18.904;-99.054;2024-02-23T00:13:34;25.65;;;6.43;;
61385;SDS011;47256;18.904;-99.054;2024-02-23T00:16:05;11.98;;;5.85;;
61385;SDS011;47256;18.904;-99.054;2024-02-23T00:18:34;23.55;;;6.25;;
61385;SDS011;47256;18.904;-99.054;2024-02-23T00:21:05;19.55;;;6.85;;
61385;SDS011;47256;18.904;-99.054;2024-02-23T00:23:36;20.33;;;7.65;;
61385;SDS011;47256;18.904;-99.054;2024-02-23T00:26:03;21.55;;;7.38;;
61385;SDS011;47256;18.904;-99.054;2024-02-23T00:28:34;33.67;;;8.35;;
61385;SDS011;47256;18.904;-99.054;2024-02-23T00:31:02;38.35;;;8.23;;
61385;SDS011;47256;18.904;-99.054;2024-02-23T00:33:35;21.80;;;8.55;;
61385;SDS011;47256;18.904;-99.054;2024-02-23T00:36:04;50.65;;;9.27;;
61385;SDS011;47256;18.904;-99.054;2024-02-23T00:38:32;41.63;;;10.32;;
61385;SDS011;47256;18.904;-99.054;2024-02-23T00:41:05;18.15;;;7.60;;
61385;SDS011;47256;18.904;-99.054;2024-02-23T00:43:42;25.40;;;8.82;;
61385;SDS011;47256;18.904;-99.054;2024-02-23T00:46:11;79.00;;;13.25;;
61385;SDS011;47256;18.904;-99.054;2024-02-23T00:48:38;59.65;;;14.98;;
61385;SDS011;47256;18.904;-99.054;2024-02-23T00:51:11;61.20;;;16.45;;
61385;SDS011;47256;18.904;-99.054;2024-02-23T00:53:38;54.33;;;16.60;;
61385;SDS011;47256;18.904;-99.054;2024-02-23T00:56:08;57.97;;;19.23;;
61385;SDS011;47256;18.904;-99.054;2024-02-23T00:58:35;65.35;;;17.80;;
61385;SDS011;47256;18.904;-99.054;2024-02-23T01:01:04;55.22;;;17.88;;
61385;SDS011;47256;18.904;-99.054;2024-02-23T01:03:34;46.20;;;18.65;;
61385;SDS011;47256;18.904;-99.054;2024-02-23T01:06:04;45.40;;;16.88;;
61385;SDS011;47256;18.904;-99.054;2024-02-23T01:08:32;43.38;;;18.95;;
61385;SDS011;47256;18.904;-99.054;2024-02-23T01:11:01;44.65;;;17.88;;
61385;SDS011;47256;18.904;-99.054;2024-02-23T01:13:28;45.47;;;17.00;;
61385;SDS011;47256;18.904;-99.054;2024-02-23T01:15:55;37.55;;;15.60;;
61385;SDS011;47256;18.904;-99.054;2024-02-23T01:18:25;37.97;;;15.75;;
61385;SDS011;47256;18.904;-99.054;2024-02-23T01:20:56;49.38;;;15.30;;
61385;SDS011;47256;18.904;-99.054;2024-02-23T01:23:28;85.72;;;18.17;;
61385;SDS011;47256;18.904;-99.054;2024-02-23T01:25:56;45.80;;;14.48;;
61385;SDS011;47256;18.904;-99.054;2024-02-23T01:28:25;43.60;;;15.10;;
61385;SDS011;47256;18.904;-99.054;2024-02-23T01:30:52;30.98;;;13.45;;
61385;SDS011;47256;18.904;-99.054;2024-02-23T01:33:19;34.30;;;13.60;;
61385;SDS011;47256;18.904;-99.054;2024-02-23T01:35:47;26.10;;;12.13;;
61385;SDS011;47256;18.904;-99.054;2024-02-23T01:38:18;28.02;;;11.88;;
61385;SDS011;47256;18.904;-99.054;2024-02-23T01:40:57;34.67;;;11.98;;
61385;SDS011;47256;18.904;-99.054;2024-02-23T01:43:24;26.63;;;12.85;;
61385;SDS011;47256;18.904;-99.054;2024-02-23T01:45:52;30.13;;;13.93;;
61385;SDS011;47256;18.904;-99.054;2024-02-23T01:48:23;26.02;;;12.52;;
61385;SDS011;47256;18.904;-99.054;2024-02-23T01:51:01;25.48;;;10.82;;
61385;SDS011;47256;18.904;-99.054;2024-02-23T01:53:32;23.92;;;11.95;;
61385;SDS011;47256;18.904;-99.054;2024-02-23T01:56:00;23.52;;;10.27;;
61385;SDS011;47256;18.904;-99.054;2024-02-23T01:58:33;19.45;;;9.68;;
61385;SDS011;47256;18.904;-99.054;2024-02-23T02:01:06;32.67;;;10.77;;
61385;SDS011;47256;18.904;-99.054;2024-02-23T02:03:34;35.53;;;11.65;;
61385;SDS011;47256;18.904;-99.054;2024-02-23T02:06:09;24.45;;;10.45;;
61385;SDS011;47256;18.904;-99.054;2024-02-23T02:08:37;26.63;;;12.80;;
61385;SDS011;47256;18.904;-99.054;2024-02-23T02:11:08;31.83;;;12.40;;
61385;SDS011;47256;18.904;-99.054;2024-02-23T02:13:35;83.50;;;30.05;;
61385;SDS011;47256;18.904;-99.054;2024-02-23T02:16:07;77.88;;;28.73;;
61385;SDS011;47256;18.904;-99.054;2024-02-23T02:18:34;79.70;;;31.55;;
61385;SDS011;47256;18.904;-99.054;2024-02-23T02:21:07;80.28;;;27.25;;
61385;SDS011;47256;18.904;-99.054;2024-02-23T02:23:38;84.15;;;32.95;;
61385;SDS011;47256;18.904;-99.054;2024-02-23T02:26:09;93.90;;;38.25;;
61385;SDS011;47256;18.904;-99.054;2024-02-23T02:28:36;95.25;;;38.65;;
61385;SDS011;47256;18.904;-99.054;2024-02-23T02:31:04;83.03;;;36.50;;
61385;SDS011;47256;18.904;-99.054;2024-02-23T02:33:34;60.80;;;28.83;;
61385;SDS011;47256;18.904;-99.054;2024-02-23T02:36:01;161.75;;;55.05;;
61385;SDS011;47256;18.904;-99.054;2024-02-23T02:38:28;119.63;;;43.50;;
61385;SDS011;47256;18.904;-99.054;2024-02-23T02:40:58;102.57;;;38.88;;
61385;SDS011;47256;18.904;-99.054;2024-02-23T02:43:29;89.90;;;34.88;;
61385;SDS011;47256;18.904;-99.054;2024-02-23T02:45:59;107.07;;;42.17;;
61385;SDS011;47256;18.904;-99.054;2024-02-23T02:48:27;102.05;;;39.53;;
61385;SDS011;47256;18.904;-99.054;2024-02-23T02:51:00;92.00;;;37.08;;
61385;SDS011;47256;18.904;-99.054;2024-02-23T02:53:35;70.32;;;26.20;;
61385;SDS011;47256;18.904;-99.054;2024-02-23T02:56:05;100.82;;;47.17;;
61385;SDS011;47256;18.904;-99.054;2024-02-23T02:58:33;94.40;;;35.97;;
61385;SDS011;47256;18.904;-99.054;2024-02-23T03:01:00;82.30;;;38.10;;
61385;SDS011;47256;18.904;-99.054;2024-02-23T03:03:29;98.07;;;42.47;;
61385;SDS011;47256;18.904;-99.054;2024-02-23T03:06:01;84.05;;;35.88;;
61385;SDS011;47256;18.904;-99.054;2024-02-23T03:08:28;93.70;;;37.08;;
61385;SDS011;47256;18.904;-99.054;2024-02-23T03:10:57;65.97;;;29.75;;
61385;SDS011;47256;18.904;-99.054;2024-02-23T03:13:39;94.15;;;35.90;;
61385;SDS011;47256;18.904;-99.054;2024-02-23T03:16:06;85.95;;;34.97;;
61385;SDS011;47256;18.904;-99.054;2024-02-23T03:18:40;79.90;;;31.17;;
61385;SDS011;47256;18.904;-99.054;2024-02-23T03:21:15;53.50;;;23.73;;
61385;SDS011;47256;18.904;-99.054;2024-02-23T03:23:48;55.25;;;24.30;;
61385;SDS011;47256;18.904;-99.054;2024-02-23T03:26:20;58.28;;;22.92;;
61385;SDS011;47256;18.904;-99.054;2024-02-23T03:28:47;42.67;;;21.13;;
61385;SDS011;47256;18.904;-99.054;2024-02-23T03:31:15;62.90;;;23.80;;
61385;SDS011;47256;18.904;-99.054;2024-02-23T03:33:47;66.10;;;24.08;;
61385;SDS011;47256;18.904;-99.054;2024-02-23T03:36:14;48.88;;;22.38;;
61385;SDS011;47256;18.904;-99.054;2024-02-23T03:38:46;58.28;;;21.83;;
61385;SDS011;47256;18.904;-99.054;2024-02-23T03:41:15;53.05;;;21.42;;
61385;SDS011;47256;18.904;-99.054;2024-02-23T03:43:44;44.67;;;19.38;;
61385;SDS011;47256;18.904;-99.054;2024-02-23T03:46:11;48.20;;;19.83;;
61385;SDS011;47256;18.904;-99.054;2024-02-23T03:48:40;47.20;;;21.42;;
61385;SDS011;47256;18.904;-99.054;2024-02-23T03:51:18;103.93;;;39.72;;
61385;SDS011;47256;18.904;-99.054;2024-02-23T03:53:51;139.15;;;43.25;;
61385;SDS011;47256;18.904;-99.054;2024-02-23T03:56:24;76.28;;;30.58;;
61385;SDS011;47256;18.904;-99.054;2024-02-23T03:58:55;51.30;;;20.88;;
61385;SDS011;47256;18.904;-99.054;2024-02-23T04:01:28;71.32;;;28.15;;
61385;SDS011;47256;18.904;-99.054;2024-02-23T04:04:07;66.05;;;25.13;;
61385;SDS011;47256;18.904;-99.054;2024-02-23T04:06:40;89.28;;;38.95;;
61385;SDS011;47256;18.904;-99.054;2024-02-23T04:09:17;52.88;;;23.15;;
61385;SDS011;47256;18.904;-99.054;2024-02-23T04:11:50;53.53;;;20.07;;
61385;SDS011;47256;18.904;-99.054;2024-02-23T04:14:20;81.20;;;30.88;;
61385;SDS011;47256;18.904;-99.054;2024-02-23T04:16:47;67.88;;;30.48;;
61385;SDS011;47256;18.904;-99.054;2024-02-23T04:19:14;67.68;;;27.98;;
61385;SDS011;47256;18.904;-99.054;2024-02-23T04:21:45;72.10;;;27.80;;
61385;SDS011;47256;18.904;-99.054;2024-02-23T04:24:19;66.43;;;23.48;;
61385;SDS011;47256;18.904;-99.054;2024-02-23T04:26:48;47.10;;;20.75;;
61385;SDS011;47256;18.904;-99.054;2024-02-23T04:29:21;49.08;;;20.70;;
61385;SDS011;47256;18.904;-99.054;2024-02-23T04:31:49;38.38;;;19.00;;
61385;SDS011;47256;18.904;-99.054;2024-02-23T04:34:19;54.42;;;19.63;;
61385;SDS011;47256;18.904;-99.054;2024-02-23T04:36:53;43.15;;;17.48;;
61385;SDS011;47256;18.904;-99.054;2024-02-23T04:39:21;36.50;;;15.18;;
61385;SDS011;47256;18.904;-99.054;2024-02-23T04:41:49;27.83;;;13.60;;
61385;SDS011;47256;18.904;-99.054;2024-02-23T04:44:23;29.40;;;12.25;;
61385;SDS011;47256;18.904;-99.054;2024-02-23T04:46:59;28.13;;;10.75;;
61385;SDS011;47256;18.904;-99.054;2024-02-23T04:49:28;27.05;;;11.18;;
61385;SDS011;47256;18.904;-99.054;2024-02-23T04:51:56;26.27;;;9.73;;
61385;SDS011;47256;18.904;-99.054;2024-02-23T04:54:27;18.77;;;9.35;;
61385;SDS011;47256;18.904;-99.054;2024-02-23T04:56:57;21.05;;;9.73;;
61385;SDS011;47256;18.904;-99.054;2024-02-23T04:59:25;80.75;;;25.23;;
61385;SDS011;47256;18.904;-99.054;2024-02-23T05:01:54;59.03;;;18.95;;
61385;SDS011;47256;18.904;-99.054;2024-02-23T05:04:28;26.80;;;11.48;;
61385;SDS011;47256;18.904;-99.054;2024-02-23T05:07:06;20.70;;;11.15;;
61385;SDS011;47256;18.904;-99.054;2024-02-23T05:09:35;34.75;;;14.25;;
61385;SDS011;47256;18.904;-99.054;2024-02-23T05:12:15;39.83;;;15.93;;
61385;SDS011;47256;18.904;-99.054;2024-02-23T05:14:44;30.60;;;13.77;;
61385;SDS011;47256;18.904;-99.054;2024-02-23T05:17:19;33.90;;;13.13;;
61385;SDS011;47256;18.904;-99.054;2024-02-23T05:19:58;33.38;;;13.98;;
61385;SDS011;47256;18.904;-99.054;2024-02-23T05:22:42;25.55;;;13.85;;
61385;SDS011;47256;18.904;-99.054;2024-02-23T05:25:09;25.35;;;12.77;;
61385;SDS011;47256;18.904;-99.054;2024-02-23T05:27:37;28.38;;;14.05;;
61385;SDS011;47256;18.904;-99.054;2024-02-23T05:30:12;32.97;;;15.85;;
61385;SDS011;47256;18.904;-99.054;2024-02-23T05:33:05;44.83;;;14.70;;
61385;SDS011;47256;18.904;-99.054;2024-02-23T05:35:40;37.63;;;13.98;;
61385;SDS011;47256;18.904;-99.054;2024-02-23T05:38:20;42.58;;;17.50;;
61385;SDS011;47256;18.904;-99.054;2024-02-23T05:40:58;42.38;;;16.63;;
61385;SDS011;47256;18.904;-99.054;2024-02-23T05:43:28;42.58;;;16.58;;
61385;SDS011;47256;18.904;-99.054;2024-02-23T05:45:58;38.38;;;17.35;;
61385;SDS011;47256;18.904;-99.054;2024-02-23T05:48:31;41.45;;;16.27;;
61385;SDS011;47256;18.904;-99.054;2024-02-23T05:51:02;33.50;;;16.65;;
61385;SDS011;47256;18.904;-99.054;2024-02-23T05:53:31;40.42;;;17.50;;
61385;SDS011;47256;18.904;-99.054;2024-02-23T05:56:13;43.50;;;20.38;;
61385;SDS011;47256;18.904;-99.054;2024-02-23T05:58:44;79.85;;;30.35;;
61385;SDS011;47256;18.904;-99.054;2024-02-23T06:01:16;87.63;;;32.60;;
61385;SDS011;47256;18.904;-99.054;2024-02-23T06:03:45;55.72;;;22.73;;
61385;SDS011;47256;18.904;-99.054;2024-02-23T06:06:21;53.05;;;24.08;;
61385;SDS011;47256;18.904;-99.054;2024-02-23T06:08:49;37.40;;;19.33;;
61385;SDS011;47256;18.904;-99.054;2024-02-23T06:11:19;47.13;;;19.98;;
61385;SDS011;47256;18.904;-99.054;2024-02-23T06:13:49;47.92;;;19.42;;
61385;SDS011;47256;18.904;-99.054;2024-02-23T06:16:25;42.23;;;18.23;;
61385;SDS011;47256;18.904;-99.054;2024-02-23T06:19:16;44.80;;;18.20;;
61385;SDS011;47256;18.904;-99.054;2024-02-23T06:21:49;38.38;;;17.83;;
61385;SDS011;47256;18.904;-99.054;2024-02-23T06:24:28;39.88;;;17.23;;
61385;SDS011;47256;18.904;-99.054;2024-02-23T06:26:59;41.90;;;18.25;;
61385;SDS011;47256;18.904;-99.054;2024-02-23T06:29:26;35.47;;;16.70;;
61385;SDS011;47256;18.904;-99.054;2024-02-23T06:31:54;35.55;;;16.85;;
61385;SDS011;47256;18.904;-99.054;2024-02-23T06:34:25;41.90;;;18.45;;
61385;SDS011;47256;18.904;-99.054;2024-02-23T06:36:55;32.15;;;16.92;;
61385;SDS011;47256;18.904;-99.054;2024-02-23T06:39:28;40.17;;;16.85;;
61385;SDS011;47256;18.904;-99.054;2024-02-23T06:41:55;39.58;;;17.90;;
61385;SDS011;47256;18.904;-99.054;2024-02-23T06:44:26;35.63;;;16.85;;
61385;SDS011;47256;18.904;-99.054;2024-02-23T06:46:59;35.00;;;15.52;;
61385;SDS011;47256;18.904;-99.054;2024-02-23T06:49:27;44.17;;;16.40;;
61385;SDS011;47256;18.904;-99.054;2024-02-23T06:52:00;33.75;;;16.40;;
61385;SDS011;47256;18.904;-99.054;2024-02-23T06:54:33;38.30;;;16.00;;
61385;SDS011;47256;18.904;-99.054;2024-02-23T06:57:04;50.08;;;21.63;;
61385;SDS011;47256;18.904;-99.054;2024-02-23T06:59:36;42.15;;;16.75;;
61385;SDS011;47256;18.904;-99.054;2024-02-23T07:02:04;34.58;;;16.58;;
61385;SDS011;47256;18.904;-99.054;2024-02-23T07:04:32;38.92;;;14.30;;
61385;SDS011;47256;18.904;-99.054;2024-02-23T07:07:03;20.63;;;13.50;;
61385;SDS011;47256;18.904;-99.054;2024-02-23T07:09:34;21.60;;;12.50;;
61385;SDS011;47256;18.904;-99.054;2024-02-23T07:12:04;26.30;;;12.82;;
61385;SDS011;47256;18.904;-99.054;2024-02-23T07:14:35;22.95;;;13.80;;
61385;SDS011;47256;18.904;-99.054;2024-02-23T07:17:06;29.58;;;14.48;;
61385;SDS011;47256;18.904;-99.054;2024-02-23T07:19:43;28.42;;;13.80;;
61385;SDS011;47256;18.904;-99.054;2024-02-23T07:22:10;27.90;;;13.40;;
61385;SDS011;47256;18.904;-99.054;2024-02-23T07:24:42;22.15;;;12.10;;
61385;SDS011;47256;18.904;-99.054;2024-02-23T07:27:14;30.73;;;12.55;;
61385;SDS011;47256;18.904;-99.054;2024-02-23T07:29:51;30.52;;;12.93;;
61385;SDS011;47256;18.904;-99.054;2024-02-23T07:32:18;26.48;;;11.55;;
61385;SDS011;47256;18.904;-99.054;2024-02-23T07:34:45;27.00;;;13.00;;
61385;SDS011;47256;18.904;-99.054;2024-02-23T07:37:16;25.83;;;12.93;;
61385;SDS011;47256;18.904;-99.054;2024-02-23T07:39:48;25.60;;;13.27;;
61385;SDS011;47256;18.904;-99.054;2024-02-23T07:42:16;29.00;;;12.82;;
61385;SDS011;47256;18.904;-99.054;2024-02-23T07:44:47;24.88;;;12.82;;
61385;SDS011;47256;18.904;-99.054;2024-02-23T07:47:19;25.70;;;12.48;;
61385;SDS011;47256;18.904;-99.054;2024-02-23T07:49:51;22.48;;;12.80;;
61385;SDS011;47256;18.904;-99.054;2024-02-23T07:52:20;29.02;;;13.73;;
61385;SDS011;47256;18.904;-99.054;2024-02-23T07:54:51;27.92;;;12.95;;
61385;SDS011;47256;18.904;-99.054;2024-02-23T07:57:19;26.50;;;11.93;;
61385;SDS011;47256;18.904;-99.054;2024-02-23T07:59:47;27.30;;;11.02;;
61385;SDS011;47256;18.904;-99.054;2024-02-23T08:02:17;41.03;;;13.00;;
61385;SDS011;47256;18.904;-99.054;2024-02-23T08:04:58;26.92;;;11.23;;
61385;SDS011;47256;18.904;-99.054;2024-02-23T08:07:29;18.02;;;10.55;;
61385;SDS011;47256;18.904;-99.054;2024-02-23T08:10:02;22.13;;;11.10;;
61385;SDS011;47256;18.904;-99.054;2024-02-23T08:12:31;22.75;;;11.48;;
61385;SDS011;47256;18.904;-99.054;2024-02-23T08:15:04;22.42;;;11.27;;
61385;SDS011;47256;18.904;-99.054;2024-02-23T08:17:32;24.08;;;10.05;;
61385;SDS011;47256;18.904;-99.054;2024-02-23T08:20:01;21.50;;;11.88;;
61385;SDS011;47256;18.904;-99.054;2024-02-23T08:22:32;26.60;;;11.43;;
61385;SDS011;47256;18.904;-99.054;2024-02-23T08:25:02;21.67;;;12.38;;
61385;SDS011;47256;18.904;-99.054;2024-02-23T08:27:30;26.02;;;11.85;;
61385;SDS011;47256;18.904;-99.054;2024-02-23T08:29:57;29.40;;;12.38;;
61385;SDS011;47256;18.904;-99.054;2024-02-23T08:32:26;26.02;;;11.30;;
61385;SDS011;47256;18.904;-99.054;2024-02-23T08:34:56;29.42;;;13.30;;
61385;SDS011;47256;18.904;-99.054;2024-02-23T08:37:27;24.67;;;11.88;;
61385;SDS011;47256;18.904;-99.054;2024-02-23T08:39:54;27.98;;;13.75;;
61385;SDS011;47256;18.904;-99.054;2024-02-23T08:45:10;25.63;;;12.65;;
61385;SDS011;47256;18.904;-99.054;2024-02-23T08:47:46;29.58;;;12.85;;
61385;SDS011;47256;18.904;-99.054;2024-02-23T08:50:16;26.58;;;13.38;;
61385;SDS011;47256;18.904;-99.054;2024-02-23T08:52:44;25.55;;;13.15;;
61385;SDS011;47256;18.904;-99.054;2024-02-23T08:55:12;27.58;;;13.25;;
61385;SDS011;47256;18.904;-99.054;2024-02-23T08:57:45;23.25;;;12.10;;
61385;SDS011;47256;18.904;-99.054;2024-02-23T09:00:14;21.10;;;12.85;;
61385;SDS011;47256;18.904;-99.054;2024-02-23T09:02:51;25.38;;;12.68;;
61385;SDS011;47256;18.904;-99.054;2024-02-23T09:05:26;23.73;;;13.35;;
61385;SDS011;47256;18.904;-99.054;2024-02-23T09:07:55;28.27;;;13.60;;
61385;SDS011;47256;18.904;-99.054;2024-02-23T09:10:26;26.23;;;12.73;;
61385;SDS011;47256;18.904;-99.054;2024-02-23T09:12:59;31.42;;;12.15;;
61385;SDS011;47256;18.904;-99.054;2024-02-23T09:15:32;22.83;;;12.32;;
61385;SDS011;47256;18.904;-99.054;2024-02-23T09:17:59;25.95;;;13.30;;
61385;SDS011;47256;18.904;-99.054;2024-02-23T09:20:27;26.33;;;11.98;;
61385;SDS011;47256;18.904;-99.054;2024-02-23T09:22:59;24.33;;;11.85;;
61385;SDS011;47256;18.904;-99.054;2024-02-23T09:25:26;30.38;;;12.32;;
61385;SDS011;47256;18.904;-99.054;2024-02-23T09:28:02;23.23;;;11.57;;
61385;SDS011;47256;18.904;-99.054;2024-02-23T09:30:32;30.65;;;11.88;;
61385;SDS011;47256;18.904;-99.054;2024-02-23T09:33:08;21.45;;;11.43;;
61385;SDS011;47256;18.904;-99.054;2024-02-23T09:35:38;23.83;;;11.13;;
61385;SDS011;47256;18.904;-99.054;2024-02-23T09:38:11;25.70;;;13.40;;
61385;SDS011;47256;18.904;-99.054;2024-02-23T09:40:46;25.88;;;11.93;;
61385;SDS011;47256;18.904;-99.054;2024-02-23T09:43:16;29.75;;;11.52;;
61385;SDS011;47256;18.904;-99.054;2024-02-23T09:45:44;24.98;;;11.52;;
61385;SDS011;47256;18.904;-99.054;2024-02-23T09:48:14;21.85;;;11.07;;
61385;SDS011;47256;18.904;-99.054;2024-02-23T09:50:47;21.25;;;11.02;;
61385;SDS011;47256;18.904;-99.054;2024-02-23T09:53:15;20.02;;;10.75;;
61385;SDS011;47256;18.904;-99.054;2024-02-23T09:55:51;21.70;;;10.70;;
61385;SDS011;47256;18.904;-99.054;2024-02-23T09:58:19;23.27;;;10.73;;
61385;SDS011;47256;18.904;-99.054;2024-02-23T10:00:53;19.92;;;10.93;;
61385;SDS011;47256;18.904;-99.054;2024-02-23T10:03:27;21.10;;;10.02;;
61385;SDS011;47256;18.904;-99.054;2024-02-23T10:05:57;19.85;;;10.30;;
61385;SDS011;47256;18.904;-99.054;2024-02-23T10:08:31;18.08;;;9.82;;
61385;SDS011;47256;18.904;-99.054;2024-02-23T10:11:01;15.57;;;10.45;;
61385;SDS011;47256;18.904;-99.054;2024-02-23T10:13:31;23.15;;;10.73;;
61385;SDS011;47256;18.904;-99.054;2024-02-23T10:15:58;22.25;;;11.32;;
61385;SDS011;47256;18.904;-99.054;2024-02-23T10:18:37;21.13;;;9.93;;
61385;SDS011;47256;18.904;-99.054;2024-02-23T10:21:13;20.25;;;10.63;;
61385;SDS011;47256;18.904;-99.054;2024-02-23T10:23:41;17.10;;;8.70;;
61385;SDS011;47256;18.904;-99.054;2024-02-23T10:26:14;14.60;;;9.30;;
61385;SDS011;47256;18.904;-99.054;2024-02-23T10:28:51;21.52;;;8.90;;
61385;SDS011;47256;18.904;-99.054;2024-02-23T10:31:34;19.58;;;9.25;;
61385;SDS011;47256;18.904;-99.054;2024-02-23T10:34:10;15.70;;;8.48;;
61385;SDS011;47256;18.904;-99.054;2024-02-23T10:36:40;17.60;;;8.80;;
61385;SDS011;47256;18.904;-99.054;2024-02-23T10:39:17;21.63;;;9.13;;
61385;SDS011;47256;18.904;-99.054;2024-02-23T10:42:02;18.63;;;9.75;;
61385;SDS011;47256;18.904;-99.054;2024-02-23T10:44:39;18.38;;;9.85;;
61385;SDS011;47256;18.904;-99.054;2024-02-23T10:47:13;17.80;;;8.50;;
61385;SDS011;47256;18.904;-99.054;2024-02-23T10:49:41;15.07;;;9.07;;
61385;SDS011;47256;18.904;-99.054;2024-02-23T10:52:18;14.48;;;8.23;;
61385;SDS011;47256;18.904;-99.054;2024-02-23T10:54:47;15.18;;;8.55;;
61385;SDS011;47256;18.904;-99.054;2024-02-23T10:57:19;18.92;;;7.88;;
61385;SDS011;47256;18.904;-99.054;2024-02-23T10:59:48;17.88;;;8.35;;
61385;SDS011;47256;18.904;-99.054;2024-02-23T11:02:16;20.65;;;9.43;;
61385;SDS011;47256;18.904;-99.054;2024-02-23T11:04:50;15.98;;;8.75;;
61385;SDS011;47256;18.904;-99.054;2024-02-23T11:07:20;17.33;;;9.23;;
61385;SDS011;47256;18.904;-99.054;2024-02-23T11:09:59;15.80;;;7.70;;
61385;SDS011;47256;18.904;-99.054;2024-02-23T11:12:28;12.93;;;7.32;;
61385;SDS011;47256;18.904;-99.054;2024-02-23T11:14:57;12.88;;;7.95;;
61385;SDS011;47256;18.904;-99.054;2024-02-23T11:17:31;15.48;;;8.48;;
61385;SDS011;47256;18.904;-99.054;2024-02-23T11:20:02;15.90;;;8.15;;
61385;SDS011;47256;18.904;-99.054;2024-02-23T11:22:35;13.10;;;7.10;;
61385;SDS011;47256;18.904;-99.054;2024-02-23T11:25:04;19.35;;;8.23;;
61385;SDS011;47256;18.904;-99.054;2024-02-23T11:27:35;15.45;;;8.55;;
61385;SDS011;47256;18.904;-99.054;2024-02-23T11:30:07;13.23;;;8.10;;
61385;SDS011;47256;18.904;-99.054;2024-02-23T11:32:49;17.73;;;7.97;;
61385;SDS011;47256;18.904;-99.054;2024-02-23T11:35:20;13.27;;;7.97;;
61385;SDS011;47256;18.904;-99.054;2024-02-23T11:37:57;15.68;;;9.57;;
61385;SDS011;47256;18.904;-99.054;2024-02-23T11:40:27;12.45;;;7.70;;
61385;SDS011;47256;18.904;-99.054;2024-02-23T11:42:57;14.93;;;7.53;;
61385;SDS011;47256;18.904;-99.054;2024-02-23T11:45:28;15.02;;;8.45;;
61385;SDS011;47256;18.904;-99.054;2024-02-23T11:48:00;17.50;;;7.97;;
61385;SDS011;47256;18.904;-99.054;2024-02-23T11:50:32;14.60;;;7.47;;
61385;SDS011;47256;18.904;-99.054;2024-02-23T11:52:59;16.05;;;7.30;;
61385;SDS011;47256;18.904;-99.054;2024-02-23T11:55:30;14.65;;;7.63;;
61385;SDS011;47256;18.904;-99.054;2024-02-23T11:58:00;14.80;;;8.45;;
61385;SDS011;47256;18.904;-99.054;2024-02-23T12:00:38;17.55;;;7.50;;
61385;SDS011;47256;18.904;-99.054;2024-02-23T12:03:16;11.93;;;8.23;;
61385;SDS011;47256;18.904;-99.054;2024-02-23T12:05:43;20.95;;;8.20;;
61385;SDS011;47256;18.904;-99.054;2024-02-23T12:08:20;19.13;;;7.75;;
61385;SDS011;47256;18.904;-99.054;2024-02-23T12:10:47;20.50;;;8.30;;
61385;SDS011;47256;18.904;-99.054;2024-02-23T12:13:38;12.60;;;7.65;;
61385;SDS011;47256;18.904;-99.054;2024-02-23T12:16:09;14.13;;;8.13;;
61385;SDS011;47256;18.904;-99.054;2024-02-23T12:18:39;17.67;;;8.27;;
61385;SDS011;47256;18.904;-99.054;2024-02-23T12:21:09;14.95;;;8.20;;
61385;SDS011;47256;18.904;-99.054;2024-02-23T12:26:22;16.58;;;7.93;;
61385;SDS011;47256;18.904;-99.054;2024-02-23T12:28:52;17.70;;;8.27;;
61385;SDS011;47256;18.904;-99.054;2024-02-23T12:31:33;17.83;;;8.65;;
61385;SDS011;47256;18.904;-99.054;2024-02-23T12:34:04;28.05;;;8.77;;
61385;SDS011;47256;18.904;-99.054;2024-02-23T12:36:34;14.70;;;7.78;;
61385;SDS011;47256;18.904;-99.054;2024-02-23T12:39:03;17.27;;;7.93;;
61385;SDS011;47256;18.904;-99.054;2024-02-23T12:41:35;19.98;;;8.88;;
61385;SDS011;47256;18.904;-99.054;2024-02-23T12:44:02;15.23;;;7.80;;
61385;SDS011;47256;18.904;-99.054;2024-02-23T12:46:34;39.88;;;9.05;;
61385;SDS011;47256;18.904;-99.054;2024-02-23T12:49:11;22.90;;;7.80;;
61385;SDS011;47256;18.904;-99.054;2024-02-23T12:51:48;19.27;;;8.98;;
61385;SDS011;47256;18.904;-99.054;2024-02-23T12:54:15;23.25;;;8.60;;
61385;SDS011;47256;18.904;-99.054;2024-02-23T12:56:47;24.20;;;9.20;;
61385;SDS011;47256;18.904;-99.054;2024-02-23T12:59:35;27.50;;;8.10;;
61385;SDS011;47256;18.904;-99.054;2024-02-23T13:02:05;30.05;;;8.05;;
61385;SDS011;47256;18.904;-99.054;2024-02-23T13:04:36;19.83;;;8.77;;
61385;SDS011;47256;18.904;-99.054;2024-02-23T13:07:08;25.17;;;9.30;;
61385;SDS011;47256;18.904;-99.054;2024-02-23T13:09:38;32.63;;;10.02;;
61385;SDS011;47256;18.904;-99.054;2024-02-23T13:12:05;33.95;;;10.85;;
61385;SDS011;47256;18.904;-99.054;2024-02-23T13:14:41;28.20;;;10.68;;
61385;SDS011;47256;18.904;-99.054;2024-02-23T13:17:08;34.60;;;13.50;;
61385;SDS011;47256;18.904;-99.054;2024-02-23T13:19:42;33.78;;;12.30;;
61385;SDS011;47256;18.904;-99.054;2024-02-23T13:22:10;41.03;;;15.38;;
61385;SDS011;47256;18.904;-99.054;2024-02-23T13:24:39;72.40;;;29.48;;
61385;SDS011;47256;18.904;-99.054;2024-02-23T13:27:15;59.13;;;21.05;;
61385;SDS011;47256;18.904;-99.054;2024-02-23T13:30:02;45.85;;;17.75;;
61385;SDS011;47256;18.904;-99.054;2024-02-23T13:32:30;45.40;;;18.77;;
61385;SDS011;47256;18.904;-99.054;2024-02-23T13:35:07;41.25;;;13.57;;
61385;SDS011;47256;18.904;-99.054;2024-02-23T13:37:38;38.78;;;11.70;;
61385;SDS011;47256;18.904;-99.054;2024-02-23T13:40:07;34.85;;;12.93;;
61385;SDS011;47256;18.904;-99.054;2024-02-23T13:42:36;33.45;;;14.57;;
61385;SDS011;47256;18.904;-99.054;2024-02-23T13:45:10;32.97;;;12.07;;
61385;SDS011;47256;18.904;-99.054;2024-02-23T13:47:59;29.08;;;11.90;;
61385;SDS011;47256;18.904;-99.054;2024-02-23T13:50:48;36.58;;;11.55;;
61385;SDS011;47256;18.904;-99.054;2024-02-23T13:56:23;29.98;;;9.45;;
61385;SDS011;47256;18.904;-99.054;2024-02-23T13:59:12;23.83;;;10.40;;
61385;SDS011;47256;18.904;-99.054;2024-02-23T14:02:09;31.27;;;8.60;;
61385;SDS011;47256;18.904;-99.054;2024-02-23T14:04:59;25.42;;;9.10;;
61385;SDS011;47256;18.904;-99.054;2024-02-23T14:07:32;25.83;;;8.95;;
61385;SDS011;47256;18.904;-99.054;2024-02-23T14:10:01;26.05;;;9.68;;
61385;SDS011;47256;18.904;-99.054;2024-02-23T14:12:29;25.27;;;10.52;;
61385;SDS011;47256;18.904;-99.054;2024-02-23T14:15:01;30.30;;;10.52;;
61385;SDS011;47256;18.904;-99.054;2024-02-23T14:17:28;36.70;;;11.80;;
61385;SDS011;47256;18.904;-99.054;2024-02-23T14:19:56;36.35;;;10.90;;
61385;SDS011;47256;18.904;-99.054;2024-02-23T14:22:29;41.30;;;10.45;;
61385;SDS011;47256;18.904;-99.054;2024-02-23T14:25:00;28.60;;;9.43;;
61385;SDS011;47256;18.904;-99.054;2024-02-23T14:27:33;24.60;;;9.27;;
61385;SDS011;47256;18.904;-99.054;2024-02-23T14:30:00;22.45;;;9.27;;
61385;SDS011;47256;18.904;-99.054;2024-02-23T14:32:30;28.80;;;9.35;;